sensor_id;sensor_type;location;lat;lon;timestamp;temperature;humidity
29207;DHT22;16247;50.840;4.382;2023-02-01T00:00:46;8.50;99.90
29207;DHT22;16247;50.840;4.382;2023-02-01T00:03:12;8.80;99.90
29207;DHT22;16247;50.840;4.382;2023-02-01T00:05:40;8.50;99.90
29207;DHT22;16247;50.840;4.382;2023-02-01T00:08:17;8.50;99.90
29207;DHT22;16247;50.840;4.382;2023-02-01T00:11:08;8.40;99.90
29207;DHT22;16247;50.840;4.382;2023-02-01T00:14:00;8.40;99.90
29207;DHT22;16247;50.840;4.382;2023-02-01T00:16:30;8.30;99.90
29207;DHT22;16247;50.840;4.382;2023-02-01T00:20:02;8.40;99.90
29207;DHT22;16247;50.840;4.382;2023-02-01T00:22:50;8.40;99.90
29207;DHT22;16247;50.840;4.382;2023-02-01T00:26:30;8.40;99.90
29207;DHT22;16247;50.840;4.382;2023-02-01T00:29:19;8.40;99.90
29207;DHT22;16247;50.840;4.382;2023-02-01T00:32:01;8.30;99.90
29207;DHT22;16247;50.840;4.382;2023-02-01T00:34:31;8.40;99.90
29207;DHT22;16247;50.840;4.382;2023-02-01T00:37:10;8.50;99.90
29207;DHT22;16247;50.840;4.382;2023-02-01T00:40:15;8.30;99.90
29207;DHT22;16247;50.840;4.382;2023-02-01T00:43:50;8.50;99.90
29207;DHT22;16247;50.840;4.382;2023-02-01T00:46:47;8.50;99.90
29207;DHT22;16247;50.840;4.382;2023-02-01T00:49:13;8.40;99.90
29207;DHT22;16247;50.840;4.382;2023-02-01T00:52:05;8.60;99.90
29207;DHT22;16247;50.840;4.382;2023-02-01T00:54:52;8.40;99.90
29207;DHT22;16247;50.840;4.382;2023-02-01T00:57:26;8.60;99.90
29207;DHT22;16247;50.840;4.382;2023-02-01T00:59:53;8.60;99.90
29207;DHT22;16247;50.840;4.382;2023-02-01T01:02:34;8.70;99.90
29207;DHT22;16247;50.840;4.382;2023-02-01T01:05:32;8.40;99.90
29207;DHT22;16247;50.840;4.382;2023-02-01T01:15:22;8.30;99.90
29207;DHT22;16247;50.840;4.382;2023-02-01T01:18:21;8.30;99.90
29207;DHT22;16247;50.840;4.382;2023-02-01T01:24:59;8.30;99.90
29207;DHT22;16247;50.840;4.382;2023-02-01T01:27:31;8.30;99.90
29207;DHT22;16247;50.840;4.382;2023-02-01T01:30:34;8.10;99.90
29207;DHT22;16247;50.840;4.382;2023-02-01T01:33:01;8.30;99.90
29207;DHT22;16247;50.840;4.382;2023-02-01T01:35:41;8.20;99.90
29207;DHT22;16247;50.840;4.382;2023-02-01T01:38:38;8.40;99.90
29207;DHT22;16247;50.840;4.382;2023-02-01T01:41:43;8.40;99.90
29207;DHT22;16247;50.840;4.382;2023-02-01T01:50:54;8.50;99.90
29207;DHT22;16247;50.840;4.382;2023-02-01T01:56:50;8.50;99.90
29207;DHT22;16247;50.840;4.382;2023-02-01T02:02:44;8.40;99.90
29207;DHT22;16247;50.840;4.382;2023-02-01T02:06:11;8.70;99.90
29207;DHT22;16247;50.840;4.382;2023-02-01T02:12:46;8.60;99.90
29207;DHT22;16247;50.840;4.382;2023-02-01T02:15:19;8.60;99.90
29207;DHT22;16247;50.840;4.382;2023-02-01T02:18:20;8.70;99.90
29207;DHT22;16247;50.840;4.382;2023-02-01T02:34:28;8.50;99.90
29207;DHT22;16247;50.840;4.382;2023-02-01T02:43:18;8.30;99.90
29207;DHT22;16247;50.840;4.382;2023-02-01T02:46:57;8.40;99.90
29207;DHT22;16247;50.840;4.382;2023-02-01T02:50:42;8.40;99.90
29207;DHT22;16247;50.840;4.382;2023-02-01T02:57:40;8.30;99.90
29207;DHT22;16247;50.840;4.382;2023-02-01T03:01:05;8.30;99.90
29207;DHT22;16247;50.840;4.382;2023-02-01T03:04:21;8.20;99.90
29207;DHT22;16247;50.840;4.382;2023-02-01T03:10:42;8.30;99.90
29207;DHT22;16247;50.840;4.382;2023-02-01T03:14:00;8.20;99.90
29207;DHT22;16247;50.840;4.382;2023-02-01T03:17:13;8.20;99.90
29207;DHT22;16247;50.840;4.382;2023-02-01T03:20:35;8.40;99.90
29207;DHT22;16247;50.840;4.382;2023-02-01T03:26:56;8.10;99.90
29207;DHT22;16247;50.840;4.382;2023-02-01T03:32:37;8.10;99.90
29207;DHT22;16247;50.840;4.382;2023-02-01T03:35:53;8.00;99.90
29207;DHT22;16247;50.840;4.382;2023-02-01T03:39:13;7.90;99.90
29207;DHT22;16247;50.840;4.382;2023-02-01T03:42:56;7.90;99.90
29207;DHT22;16247;50.840;4.382;2023-02-01T03:46:03;7.60;99.90
29207;DHT22;16247;50.840;4.382;2023-02-01T03:49:04;7.80;99.90
29207;DHT22;16247;50.840;4.382;2023-02-01T03:52:05;7.90;99.90
29207;DHT22;16247;50.840;4.382;2023-02-01T03:58:23;7.60;99.90
29207;DHT22;16247;50.840;4.382;2023-02-01T04:01:47;7.60;99.90
29207;DHT22;16247;50.840;4.382;2023-02-01T04:04:21;7.70;99.90
29207;DHT22;16247;50.840;4.382;2023-02-01T04:06:55;7.60;99.90
29207;DHT22;16247;50.840;4.382;2023-02-01T04:16:23;7.50;99.90
29207;DHT22;16247;50.840;4.382;2023-02-01T04:19:17;7.70;99.90
29207;DHT22;16247;50.840;4.382;2023-02-01T04:25:30;7.50;99.90
29207;DHT22;16247;50.840;4.382;2023-02-01T04:28:00;7.50;99.90
29207;DHT22;16247;50.840;4.382;2023-02-01T04:30:58;7.30;99.90
29207;DHT22;16247;50.840;4.382;2023-02-01T04:33:46;7.50;99.90
29207;DHT22;16247;50.840;4.382;2023-02-01T04:37:13;7.50;99.90
29207;DHT22;16247;50.840;4.382;2023-02-01T04:39:49;7.10;99.90
29207;DHT22;16247;50.840;4.382;2023-02-01T04:42:40;7.10;99.90
29207;DHT22;16247;50.840;4.382;2023-02-01T04:48:37;7.20;99.90
29207;DHT22;16247;50.840;4.382;2023-02-01T04:51:27;7.30;99.90
29207;DHT22;16247;50.840;4.382;2023-02-01T04:53:58;7.10;99.90
29207;DHT22;16247;50.840;4.382;2023-02-01T04:57:00;7.00;99.90
29207;DHT22;16247;50.840;4.382;2023-02-01T05:19:30;7.00;99.90
29207;DHT22;16247;50.840;4.382;2023-02-01T05:22:41;6.80;99.90
29207;DHT22;16247;50.840;4.382;2023-02-01T05:28:18;6.60;99.90
29207;DHT22;16247;50.840;4.382;2023-02-01T05:34:33;6.50;99.90
29207;DHT22;16247;50.840;4.382;2023-02-01T05:37:35;6.50;99.90
29207;DHT22;16247;50.840;4.382;2023-02-01T05:44:10;6.40;99.90
29207;DHT22;16247;50.840;4.382;2023-02-01T05:47:08;6.30;99.90
29207;DHT22;16247;50.840;4.382;2023-02-01T05:49:39;6.40;99.90
29207;DHT22;16247;50.840;4.382;2023-02-01T05:52:20;6.50;99.90
29207;DHT22;16247;50.840;4.382;2023-02-01T06:01:37;6.20;99.90
29207;DHT22;16247;50.840;4.382;2023-02-01T06:04:28;6.10;99.90
29207;DHT22;16247;50.840;4.382;2023-02-01T06:10:10;6.20;99.90
29207;DHT22;16247;50.840;4.382;2023-02-01T06:13:31;6.30;99.90
29207;DHT22;16247;50.840;4.382;2023-02-01T06:19:11;6.10;99.90
29207;DHT22;16247;50.840;4.382;2023-02-01T06:22:04;6.20;99.90
29207;DHT22;16247;50.840;4.382;2023-02-01T06:24:55;6.00;99.90
29207;DHT22;16247;50.840;4.382;2023-02-01T06:27:23;6.20;99.90
29207;DHT22;16247;50.840;4.382;2023-02-01T06:30:18;6.10;99.90
29207;DHT22;16247;50.840;4.382;2023-02-01T06:32:44;6.10;99.90
29207;DHT22;16247;50.840;4.382;2023-02-01T06:35:10;6.30;99.90
29207;DHT22;16247;50.840;4.382;2023-02-01T06:37:42;6.00;99.90
29207;DHT22;16247;50.840;4.382;2023-02-01T06:43:23;6.20;99.90
29207;DHT22;16247;50.840;4.382;2023-02-01T06:46:09;6.30;99.90
29207;DHT22;16247;50.840;4.382;2023-02-01T06:48:48;6.20;99.90
29207;DHT22;16247;50.840;4.382;2023-02-01T06:51:42;6.20;99.90
29207;DHT22;16247;50.840;4.382;2023-02-01T06:54:12;6.20;99.90
29207;DHT22;16247;50.840;4.382;2023-02-01T06:56:39;6.20;99.90
29207;DHT22;16247;50.840;4.382;2023-02-01T06:59:09;6.20;99.90
29207;DHT22;16247;50.840;4.382;2023-02-01T07:01:37;6.30;99.90
29207;DHT22;16247;50.840;4.382;2023-02-01T07:04:15;6.10;99.90
29207;DHT22;16247;50.840;4.382;2023-02-01T07:06:43;6.10;99.90
29207;DHT22;16247;50.840;4.382;2023-02-01T07:09:13;6.10;99.90
29207;DHT22;16247;50.840;4.382;2023-02-01T07:11:43;6.10;99.90
29207;DHT22;16247;50.840;4.382;2023-02-01T07:14:14;6.10;99.90
29207;DHT22;16247;50.840;4.382;2023-02-01T07:16:48;6.20;99.90
29207;DHT22;16247;50.840;4.382;2023-02-01T07:19:20;6.40;99.90
29207;DHT22;16247;50.840;4.382;2023-02-01T07:21:46;6.20;99.90
29207;DHT22;16247;50.840;4.382;2023-02-01T07:24:12;6.30;99.90
29207;DHT22;16247;50.840;4.382;2023-02-01T07:26:40;6.10;99.90
29207;DHT22;16247;50.840;4.382;2023-02-01T07:29:07;6.10;99.90
29207;DHT22;16247;50.840;4.382;2023-02-01T07:31:34;6.10;99.90
29207;DHT22;16247;50.840;4.382;2023-02-01T07:34:01;6.10;99.90
29207;DHT22;16247;50.840;4.382;2023-02-01T07:36:31;6.20;99.90
29207;DHT22;16247;50.840;4.382;2023-02-01T07:39:06;6.20;99.90
29207;DHT22;16247;50.840;4.382;2023-02-01T07:41:54;6.10;99.90
29207;DHT22;16247;50.840;4.382;2023-02-01T07:48:55;6.30;99.90
29207;DHT22;16247;50.840;4.382;2023-02-01T09:03:51;6.80;99.90
29207;DHT22;16247;50.840;4.382;2023-02-01T09:06:43;7.10;99.90
29207;DHT22;16247;50.840;4.382;2023-02-01T09:09:10;7.20;99.90
29207;DHT22;16247;50.840;4.382;2023-02-01T11:45:31;10.00;99.90
29207;DHT22;16247;50.840;4.382;2023-02-01T11:48:00;10.30;99.90
29207;DHT22;16247;50.840;4.382;2023-02-01T12:32:30;10.60;99.90
29207;DHT22;16247;50.840;4.382;2023-02-01T12:41:33;10.90;99.90
29207;DHT22;16247;50.840;4.382;2023-02-01T12:44:32;10.80;99.90
29207;DHT22;16247;50.840;4.382;2023-02-01T12:47:55;11.00;99.90
29207;DHT22;16247;50.840;4.382;2023-02-01T12:51:29;11.10;99.90
29207;DHT22;16247;50.840;4.382;2023-02-01T12:57:45;11.20;99.90
29207;DHT22;16247;50.840;4.382;2023-02-01T13:01:00;11.20;99.90
29207;DHT22;16247;50.840;4.382;2023-02-01T15:02:35;11.20;99.90
29207;DHT22;16247;50.840;4.382;2023-02-01T15:05:56;11.30;99.90
29207;DHT22;16247;50.840;4.382;2023-02-01T15:21:52;11.00;99.90
29207;DHT22;16247;50.840;4.382;2023-02-01T15:58:22;10.50;99.90
29207;DHT22;16247;50.840;4.382;2023-02-01T16:04:47;10.50;99.90
29207;DHT22;16247;50.840;4.382;2023-02-01T16:08:15;10.70;99.90
29207;DHT22;16247;50.840;4.382;2023-02-01T16:21:49;10.40;99.90
29207;DHT22;16247;50.840;4.382;2023-02-01T16:24:26;10.40;99.90
29207;DHT22;16247;50.840;4.382;2023-02-01T16:26:52;10.30;99.90
29207;DHT22;16247;50.840;4.382;2023-02-01T16:31:58;10.40;99.90
29207;DHT22;16247;50.840;4.382;2023-02-01T18:52:35;9.80;99.90
29207;DHT22;16247;50.840;4.382;2023-02-01T18:55:03;9.90;99.90
29207;DHT22;16247;50.840;4.382;2023-02-01T19:01:28;9.80;99.90
29207;DHT22;16247;50.840;4.382;2023-02-01T19:04:01;9.70;99.90
29207;DHT22;16247;50.840;4.382;2023-02-01T19:12:25;9.90;99.90
29207;DHT22;16247;50.840;4.382;2023-02-01T19:15:09;9.70;99.90
29207;DHT22;16247;50.840;4.382;2023-02-01T19:18:00;9.80;99.90
29207;DHT22;16247;50.840;4.382;2023-02-01T19:21:06;9.80;99.90
29207;DHT22;16247;50.840;4.382;2023-02-01T19:23:44;9.70;99.90
29207;DHT22;16247;50.840;4.382;2023-02-01T21:41:08;9.40;99.90
29207;DHT22;16247;50.840;4.382;2023-02-01T21:47:19;9.50;99.90
